Latest Weather Observations for Fortescue Dave Forrest

IDW60801

Issued at 7:05 pm WST Monday 20 October 2014 (issued every 30 minutes, with the page automatically refreshed every 10 minutes)

About weather observations | Map of weather stations | Latest weather observations for WA | Other Formats
Station Details ID: 505056 Name: FORTESCUE DAVE FORREST Lat: -22.29 Lon: 119.43 Height: 474.6 m
Data from the previous 72 hours. | See also: Recent months for locations in Western Australia
Date/Time
WST
Temp
°C
App
Temp
°C
Dew
Point
Rel
Hum
%
Delta-T
°C
Wind Press
QNH
hPa
Press
MSL
hPa
Rain
since 9 am
mm
Dir
 
Spd
km/h
Gust
km/h
Spd
kts
Gust
kts
20/07:00pm 31.4 26.2 -0.1 13 15.5 NW 17 22 9 12 1015.5 1012.6 0.0
20/06:30pm 32.2 27.0 0.0 12 16.0 NW 17 22 9 12 1015.0 1012.1 0.0
20/06:00pm 33.0 26.8 -0.1 12 16.5 NW 22 35 12 19 1014.6 1011.7 0.0
20/05:30pm 34.1 28.0 -2.1 10 17.5 W 20 28 11 15 1014.3 1011.3 0.0
20/05:00pm 34.5 27.1 -0.4 11 17.4 NW 28 39 15 21 1013.8 1010.8 0.0
20/04:30pm 34.9 27.6 0.3 11 17.5 NW 28 35 15 19 1013.6 1010.6 0.0
20/04:00pm 35.3 28.0 -0.2 10 17.9 WNW 28 44 15 24 1013.3 1010.4 0.0
20/03:30pm 34.8 27.1 -0.3 11 17.6 WNW 30 41 16 22 1013.5 1010.5 0.0
20/03:00pm 35.0 28.1 0.4 11 17.6 WNW 26 39 14 21 1013.7 1010.7 0.0
20/02:30pm 35.1 28.5 -0.6 10 17.8 WNW 24 39 13 21 1013.8 1010.8 0.0
20/02:12pm 35.3 28.1 0.8 11 17.7 WNW 28 46 15 25 1014.1 1011.1 0.0
20/02:00pm 35.5 28.2 0.0 10 18.0 NW 28 43 15 23 1014.2 1011.2 0.0
20/01:30pm 34.9 27.9 1.9 12 17.2 WNW 28 44 15 24 1014.6 1011.7 0.0
20/01:00pm 34.4 28.6 2.4 13 16.7 NW 22 33 12 18 1014.9 1012.0 0.0
20/12:30pm 34.8 28.9 1.9 12 17.1 NW 22 41 12 22 1015.4 1012.5 0.0
20/12:00pm 32.1 27.5 3.5 16 15.0 W 17 30 9 16 1016.1 1013.1 0.0
20/11:30am 31.6 26.9 3.3 16 14.8 W 17 32 9 17 1016.8 1013.9 0.0
20/11:00am 31.8 28.8 4.2 17 14.6 NNW 9 19 5 10 1017.2 1014.3 0.0
20/10:30am 30.6 27.6 4.0 18 14.0 W 9 19 5 10 1017.5 1014.6 0.0
20/10:00am 29.9 26.9 4.0 19 13.5 NNW 9 17 5 9 1018.0 1015.0 0.0
20/09:30am 28.9 26.2 3.6 20 13.1 E 7 17 4 9 1018.3 1015.4 0.0
20/09:00am 28.1 24.7 4.1 21 12.4 ESE 11 19 6 10 1018.4 1015.5 0.0
20/08:30am 27.0 22.8 3.9 22 11.8 SE 15 24 8 13 1018.4 1015.5 0.0
20/08:00am 26.0 21.0 3.6 23 11.3 SE 19 28 10 15 1018.3 1015.4 0.0
20/07:30am 25.1 20.5 3.8 25 10.8 SSE 17 22 9 12 1017.7 1014.8 0.0
20/07:00am 24.4 21.7 3.9 26 10.3 SSE 7 15 4 8 1017.7 1014.8 0.0
20/06:30am 22.1 18.7 4.1 30 9.0 SSE 11 15 6 8 1017.5 1014.6 0.0
20/06:00am 20.1 17.1 4.1 35 7.9 SSE 9 13 5 7 1017.0 1014.1 0.0
20/05:30am 17.5 16.0 5.2 44 6.1 E 2 6 1 3 1016.7 1013.8 0.0
20/05:00am 18.9 16.6 5.7 42 6.6 SE 7 9 4 5 1016.4 1013.5 0.0
20/04:30am 18.5 17.3 6.3 45 6.2 SSW 2 4 1 2 1016.3 1013.3 0.0
20/04:00am 18.8 17.5 6.1 43 6.4 SSW 2 4 1 2 1015.9 1012.9 0.0
20/03:30am 19.3 16.7 6.1 42 6.7 ESE 9 9 5 5 1015.8 1012.8 0.0
20/03:00am 20.3 18.5 7.1 42 6.9 SSW 6 9 3 5 1015.5 1012.6 0.0
20/02:30am 21.8 21.2 9.0 44 7.0 W 2 4 1 2 1015.2 1012.3 0.0
20/02:00am 21.9 20.7 9.6 45 6.8 SW 6 7 3 4 1015.2 1012.3 0.0
20/01:30am 22.6 20.9 9.8 44 7.1 W 9 11 5 6 1015.3 1012.4 0.0
20/01:00am 22.3 20.6 9.7 44 7.0 WNW 9 9 5 5 1015.3 1012.4 0.0
20/12:30am 22.9 20.7 9.3 42 7.5 WNW 11 13 6 7 1015.3 1012.4 0.0
20/12:00am 23.9 21.5 8.8 38 8.3 WNW 11 13 6 7 1015.5 1012.6 0.0
 
Date/Time
WST
Temp
°C
App
Temp
°C
Dew
Point
Rel
Hum
%
Delta-T
°C
Wind Press
QNH
hPa
Press
MSL
hPa
Rain
since 9 am
mm
Dir
 
Spd
km/h
Gust
km/h
Spd
kts
Gust
kts
19/11:30pm 24.2 21.4 6.8 32 9.2 WNW 11 13 6 7 1015.5 1012.6 0.0
19/11:00pm 25.3 22.6 5.4 27 10.4 WNW 9 13 5 7 1015.8 1012.8 0.0
19/10:30pm 25.9 22.7 5.1 26 10.8 WNW 11 15 6 8 1015.8 1012.8 0.0
19/10:00pm 26.4 23.2 5.3 26 11.0 WNW 11 17 6 9 1015.7 1012.7 0.0
19/09:30pm 27.1 23.3 5.9 26 11.3 WNW 15 22 8 12 1015.7 1012.7 0.0
19/09:00pm 27.6 24.5 7.2 27 11.1 NW 13 17 7 9 1015.5 1012.6 0.0
19/08:30pm 28.3 24.4 7.2 26 11.5 NW 17 22 9 12 1015.1 1012.2 0.0
19/08:00pm 28.7 24.8 7.0 25 11.8 NNW 17 26 9 14 1014.6 1011.7 0.0
19/07:30pm 29.5 25.0 6.8 24 12.4 NW 20 28 11 15 1014.1 1011.1 0.0
19/07:00pm 30.0 25.1 6.8 23 12.7 NW 22 30 12 16 1013.7 1010.7 0.0
19/06:30pm 30.4 24.7 6.7 22 13.0 NW 26 37 14 20 1013.2 1010.3 0.0
19/06:00pm 30.9 25.5 6.5 21 13.4 NW 24 32 13 17 1012.8 1009.9 0.0
19/05:30pm 31.4 24.9 6.6 21 13.6 NW 30 39 16 21 1012.5 1009.6 0.0
19/05:00pm 32.2 25.9 7.2 21 13.9 NW 30 41 16 22 1012.3 1009.3 0.0
19/04:30pm 32.9 26.1 7.1 20 14.4 NW 32 41 17 22 1012.1 1009.1 0.0
19/04:08pm 33.1 26.4 7.3 20 14.5 NW 32 50 17 27 1012.0 1009.0 0.0
19/04:00pm 32.8 25.5 7.4 20 14.3 NW 35 50 19 27 1012.0 1009.0 0.0
19/03:30pm 33.3 26.8 8.0 21 14.4 NW 32 44 17 24 1012.0 1009.0 0.0
19/03:06pm 33.5 27.7 8.0 20 14.5 NW 28 48 15 26 1012.0 1009.0 0.0
19/03:00pm 33.3 27.6 8.2 21 14.3 NW 28 41 15 22 1012.1 1009.1 0.0
19/02:34pm 33.4 26.9 8.3 21 14.3 NW 32 50 17 27 1012.2 1009.2 0.0
19/02:30pm 33.7 27.3 8.4 21 14.5 NW 32 46 17 25 1012.2 1009.2 0.0
19/02:16pm 33.1 27.0 8.4 21 14.1 NNW 30 50 16 27 1012.2 1009.2 0.0
19/02:00pm 32.8 26.3 8.1 21 14.0 WNW 32 43 17 23 1012.4 1009.4 0.0
19/01:31pm 33.2 26.7 8.3 21 14.2 NW 32 50 17 27 1012.9 1010.0 0.0
19/01:30pm 32.8 26.1 8.2 21 14.0 NW 33 50 18 27 1013.0 1010.1 0.0
19/01:05pm 32.0 26.0 8.7 23 13.3 NW 30 48 16 26 1013.3 1010.4 0.0
19/01:00pm 33.3 26.4 8.7 22 14.1 NW 35 48 19 26 1013.5 1010.5 0.0
19/12:30pm 32.0 25.1 8.8 23 13.3 NW 35 50 19 27 1013.9 1010.9 0.0
19/12:17pm 32.6 26.7 9.1 23 13.5 NNW 30 50 16 27 1013.8 1010.8 0.0
19/12:00pm 32.5 26.6 8.9 23 13.5 WNW 30 46 16 25 1014.2 1011.2 0.0
19/11:30am 31.4 27.2 9.9 26 12.5 NW 22 35 12 19 1014.6 1011.7 0.0
19/11:00am 30.2 27.3 11.0 30 11.3 W 17 28 9 15 1015.0 1012.1 0.0
19/10:30am 28.3 27.2 13.2 39 9.1 WSW 11 20 6 11 1015.4 1012.5 0.0
19/10:00am 27.7 26.4 13.7 42 8.5 WSW 13 24 7 13 1015.7 1012.7 0.0
19/09:30am 26.6 26.1 13.9 45 7.7 SW 9 19 5 10 1015.9 1012.9 0.0
19/09:00am 25.6 25.2 14.2 49 6.9 SW 9 19 5 10 1015.9 1012.9 0.0
19/08:30am 24.7 24.2 13.9 51 6.5 WSW 9 19 5 10 1015.9 1012.9 0.0
19/08:00am 24.1 23.3 15.2 57 5.4 W 13 20 7 11 1016.0 1013.0 0.0
19/07:30am 23.0 22.0 15.5 62 4.6 WNW 15 20 8 11 1015.7 1012.7 0.0
19/07:00am 22.3 22.3 16.3 69 3.7 WNW 11 19 6 10 1015.2 1012.3 0.0
19/06:30am 20.8 21.9 17.0 79 2.4 NW 7 13 4 7 1015.1 1012.2 0.0
19/06:00am 19.8 19.8 17.3 85 1.6 NNW 13 17 7 9 1014.7 1011.8 0.0
19/05:30am 19.7 19.7 17.3 86 1.5 NNW 13 17 7 9 1014.3 1011.3 0.0
19/05:00am 19.9 20.0 17.4 85 1.6 NNW 13 17 7 9 1013.9 1010.9 0.0
19/04:30am 20.3 20.4 17.4 83 1.8 NW 13 17 7 9 1013.8 1010.8 0.0
19/04:00am 20.5 21.3 17.4 82 1.9 NW 9 15 5 8 1013.6 1010.6 0.0
19/03:30am 20.6 21.4 17.3 81 2.1 N 9 13 5 7 1013.3 1010.4 0.0
19/03:00am 21.0 21.7 17.1 78 2.4 NNW 9 15 5 8 1013.2 1010.3 0.0
19/02:30am 21.4 21.5 16.6 74 3.0 N 11 15 6 8 1013.2 1010.3 0.0
19/02:00am 21.8 21.9 16.5 72 3.3 N 11 19 6 10 1013.3 1010.4 0.0
19/01:30am 22.3 22.2 16.1 68 3.8 N 11 19 6 10 1013.3 1010.4 0.0
19/01:00am 23.2 22.2 15.6 62 4.7 NNW 15 22 8 12 1013.7 1010.7 0.0
19/12:30am 23.4 22.6 15.1 59 5.1 NW 13 19 7 10 1014.0 1011.0 0.0
19/12:00am 23.9 22.3 14.9 57 5.5 NNW 17 24 9 13 1014.2 1011.2 0.0
 
Date/Time
WST
Temp
°C
App
Temp
°C
Dew
Point
Rel
Hum
%
Delta-T
°C
Wind Press
QNH
hPa
Press
MSL
hPa
Rain
since 9 am
mm
Dir
 
Spd
km/h
Gust
km/h
Spd
kts
Gust
kts
18/11:30pm 24.4 22.7 14.7 54 5.9 NNW 17 24 9 13 1014.4 1011.5 0.0
18/11:00pm 25.1 22.7 14.4 51 6.5 NNW 20 30 11 16 1014.6 1011.7 0.0
18/10:30pm 25.6 22.7 14.1 49 7.0 NW 22 30 12 16 1014.7 1011.8 0.0
18/10:00pm 26.5 23.1 13.8 45 7.7 NW 24 33 13 18 1014.5 1011.6 0.0
18/09:30pm 27.2 23.8 13.6 43 8.2 NW 24 37 13 20 1014.4 1011.5 0.0
18/09:00pm 28.0 23.2 12.9 39 9.0 NW 30 39 16 21 1014.1 1011.1 0.0
18/08:30pm 28.9 23.8 11.9 35 10.1 NW 30 43 16 23 1013.9 1010.9 0.0
18/08:00pm 29.6 23.6 10.7 31 11.0 NW 33 46 18 25 1013.5 1010.5 0.0
18/07:30pm 30.5 24.6 7.7 24 12.7 NW 28 43 15 23 1012.9 1010.0 0.0
18/07:00pm 31.1 25.0 6.5 21 13.5 NW 28 39 15 21 1012.6 1009.7 0.0
18/06:30pm 31.8 25.6 7.8 22 13.5 NW 30 48 16 26 1012.0 1009.0 0.0
18/06:28pm 31.8 25.6 7.8 22 13.5 NW 30 48 16 26 1012.0 1009.0 0.0
18/06:00pm 32.3 25.9 6.8 20 14.1 NW 30 41 16 22 1011.8 1008.8 0.0
18/05:47pm 32.6 26.4 7.7 21 14.0 NW 30 48 16 26 1011.7 1008.7 0.0
18/05:30pm 33.0 25.8 7.6 20 14.3 NW 35 48 19 26 1011.4 1008.4 0.0
18/05:26pm 33.1 26.3 7.5 20 14.4 NW 33 46 18 25 1011.5 1008.5 0.0
18/05:04pm 33.5 27.6 7.7 20 14.6 NNW 28 41 15 22 1011.3 1008.3 0.0
18/05:00pm 33.6 26.9 8.0 20 14.6 NW 33 48 18 26 1011.3 1008.3 0.0
18/04:30pm 33.8 27.5 7.5 19 14.8 NNW 30 43 16 23 1011.1 1008.2 0.0
18/04:00pm 33.9 28.0 7.4 19 15.0 NW 28 37 15 20 1011.0 1008.1 0.0
18/03:53pm 34.3 27.6 7.4 19 15.2 NNW 32 43 17 23 1011.1 1008.2 0.0
18/03:34pm 34.6 28.9 8.2 19 15.1 NNW 28 43 15 23 1011.0 1008.1 0.0
18/03:30pm 34.3 28.5 8.0 19 15.0 NNW 28 43 15 23 1011.0 1008.1 0.0
18/03:00pm 35.1 28.6 9.0 20 15.2 NW 33 44 18 24 1011.1 1008.2 0.0
18/02:30pm 34.6 29.1 9.1 21 14.8 NW 28 46 15 25 1011.3 1008.3 0.0
18/02:18pm 34.4 29.2 10.1 22 14.3 NNW 28 65 15 35 1011.7 1008.7 0.0
18/02:10pm 34.2 30.4 9.0 21 14.6 NW 19 44 10 24 1011.7 1008.7 0.0
18/02:00pm 33.7 29.6 10.0 23 13.9 NW 22 33 12 18 1011.9 1008.9 0.0
18/01:56pm 33.9 29.7 9.7 22 14.1 NW 22 33 12 18 1011.9 1008.9 0.0
18/01:30pm 33.3 28.9 10.4 24 13.5 N 24 33 13 18 1012.4 1009.4 0.0
18/01:00pm 33.5 29.5 10.6 24 13.5 NNW 22 35 12 19 1012.8 1009.9 0.0
18/12:30pm 33.2 29.9 10.9 25 13.2 NW 19 35 10 19 1013.3 1010.4 0.0
18/12:00pm 32.3 30.1 10.8 26 12.7 NNE 13 17 7 9 1014.0 1011.0 0.0
18/11:30am 32.4 29.9 11.0 27 12.7 N 15 30 8 16 1014.5 1011.6 0.0
18/11:00am 32.0 29.0 10.8 27 12.5 NNW 17 28 9 15 1014.9 1012.0 0.0
18/10:30am 30.9 28.2 10.4 28 12.0 NW 15 20 8 11 1015.4 1012.5 0.0
18/10:00am 30.8 28.9 10.6 28 11.8 N 11 20 6 11 1015.7 1012.7 0.0
18/09:30am 30.1 28.6 10.6 30 11.4 N 9 15 5 8 1016.0 1013.0 0.0
18/09:00am 29.7 27.4 10.5 30 11.1 NNE 13 19 7 10 1016.1 1013.1 0.4
18/08:30am 28.4 25.2 11.2 34 10.0 NNE 19 24 10 13 1016.1 1013.1 0.4
18/08:00am 27.7 24.9 12.6 39 9.0 NE 19 24 10 13 1016.1 1013.1 0.4
18/07:30am 26.2 23.9 12.9 43 7.9 NNE 17 20 9 11 1016.0 1013.0 0.4
18/07:12am 25.5 23.1 12.8 45 7.5 NNE 17 22 9 12 1015.8 1012.8 0.4
18/07:00am 24.8 23.2 12.9 47 7.0 NNE 13 17 7 9 1015.7 1012.7 0.4
18/06:30am 23.6 22.8 12.8 50 6.3 NNE 9 15 5 8 1015.3 1012.4 0.4
18/06:00am 22.8 21.9 12.5 52 6.0 NNE 9 15 5 8 1015.0 1012.1 0.4
18/05:30am 22.0 20.7 12.4 54 5.6 NNE 11 15 6 8 1014.8 1011.9 0.4
18/05:04am 22.0 21.1 12.5 54 5.5 NNE 9 13 5 7 1014.6 1011.7 0.4
18/05:00am 22.0 21.1 12.5 54 5.5 NNE 9 13 5 7 1014.6 1011.7 0.4
18/04:30am 22.3 21.4 12.5 53 5.7 NNE 9 13 5 7 1014.4 1011.5 0.4
18/04:00am 21.6 21.1 12.6 56 5.2 NNE 7 9 4 5 1014.1 1011.1 0.4
18/03:30am 22.2 21.7 12.7 55 5.5 NNE 7 9 4 5 1013.9 1010.9 0.4
18/03:00am 21.5 21.3 12.9 58 5.0 NNE 6 7 3 4 1013.9 1010.9 0.4
18/02:30am 21.0 20.9 13.2 61 4.6 N 6 9 3 5 1014.0 1011.0 0.4
18/02:00am 21.8 21.2 13.6 59 4.8 NE 9 11 5 6 1014.1 1011.1 0.4
18/01:30am 21.5 21.8 14.5 64 4.2 NE 6 7 3 4 1014.1 1011.1 0.4
18/01:00am 21.8 22.2 14.7 64 4.3 E 6 9 3 5 1014.3 1011.3 0.4
18/12:30am 21.9 22.3 14.7 63 4.3 ESE 6 7 3 4 1014.8 1011.9 0.4
18/12:12am 21.8 22.0 14.8 64 4.2 SE 7 9 4 5 1014.9 1012.0 0.4
18/12:00am 22.5 22.8 15.0 62 4.5 ESE 7 13 4 7 1015.2 1012.3 0.4
 
Date/Time
WST
Temp
°C
App
Temp
°C
Dew
Point
Rel
Hum
%
Delta-T
°C
Wind Press
QNH
hPa
Press
MSL
hPa
Rain
since 9 am
mm
Dir
 
Spd
km/h
Gust
km/h
Spd
kts
Gust
kts
17/11:30pm 22.6 22.3 15.4 64 4.4 SE 11 17 6 9 1015.7 1012.7 0.4
17/11:00pm 23.4 22.6 15.0 59 5.1 S 13 19 7 10 1015.7 1012.7 0.4
17/10:30pm 24.9 23.3 12.9 47 7.1 SSE 13 17 7 9 1016.2 1013.2 0.4
17/10:00pm 24.9 24.4 12.2 45 7.4 S 6 7 3 4 1016.3 1013.3 0.4
17/09:30pm 25.5 25.0 12.2 43 7.8 NNE 6 13 3 7 1016.4 1013.5 0.4
17/09:00pm 25.9 23.5 12.5 43 7.9 NE 17 24 9 13 1016.3 1013.3 0.4
17/08:30pm 26.5 22.9 12.9 43 8.1 NE 24 37 13 20 1016.0 1013.0 0.4
17/08:00pm 28.8 25.1 9.3 29 11.1 NNE 19 32 10 17 1015.3 1012.4 0.4
17/07:30pm 28.4 25.0 9.3 30 10.8 NNE 17 24 9 13 1014.1 1011.1 0.4

Other Formats:

Comma delimited format used in spreadsheet applications
http://www.bom.gov.au/fwo/IDW60801/IDW60801.99736.axf

JavaScript Object Notation format (JSON) in row-major order
http://www.bom.gov.au/fwo/IDW60801/IDW60801.99736.json